createdAt,value
2023-01-17T00:00:49.430Z,70.44
2023-01-17T00:10:58.956Z,71.69
2023-01-17T00:21:19.758Z,71.86
2023-01-17T00:31:22.138Z,72.81
2023-01-17T00:41:24.458Z,70.44
2023-01-17T00:51:47.145Z,69.79
2023-01-17T01:02:08.007Z,69.00
2023-01-17T01:12:28.966Z,69.46
2023-01-17T01:22:49.589Z,68.77
2023-01-17T01:33:10.739Z,68.81
2023-01-17T01:43:14.993Z,69.31
2023-01-17T01:53:20.423Z,67.94
2023-01-17T02:03:29.594Z,67.43
2023-01-17T02:13:31.997Z,67.75
2023-01-17T02:23:53.209Z,67.39
2023-01-17T02:34:20.724Z,67.01
2023-01-17T02:44:24.197Z,66.90
2023-01-17T02:54:56.032Z,67.71
2023-01-17T03:05:09.216Z,68.27
2023-01-17T03:15:13.118Z,68.29
2023-01-17T03:25:16.851Z,68.20
2023-01-17T03:35:19.289Z,67.89
2023-01-17T03:45:21.679Z,67.48
2023-01-17T03:55:24.036Z,66.75
2023-01-17T04:05:26.423Z,67.44
2023-01-17T04:15:28.880Z,67.37
2023-01-17T04:25:31.457Z,67.44
2023-01-17T04:35:33.837Z,67.93
2023-01-17T06:05:11.467Z,72.19
2023-01-17T06:15:15.393Z,69.74
2023-01-17T06:25:17.762Z,68.02
2023-01-17T06:35:20.113Z,66.84
2023-01-17T06:45:22.592Z,66.56
2023-01-17T06:55:25.152Z,66.12
2023-01-17T07:05:28.707Z,65.89
2023-01-17T07:15:31.138Z,65.96
2023-01-17T07:25:33.684Z,66.06
2023-01-17T07:35:37.429Z,66.65
2023-01-17T07:45:49.730Z,64.75
2023-01-17T07:55:52.455Z,61.57
2023-01-17T08:05:57.745Z,61.33
2023-01-17T08:16:02.603Z,59.14
2023-01-17T08:26:05.197Z,58.16
2023-01-17T08:36:07.620Z,57.92
2023-01-17T08:46:10.128Z,58.63
2023-01-17T08:56:12.555Z,56.72
2023-01-17T09:06:16.300Z,55.76
2023-01-17T09:16:18.826Z,55.53
2023-01-17T09:26:22.476Z,55.44
2023-01-17T09:36:34.036Z,54.33
2023-01-17T09:46:46.053Z,53.62
2023-01-17T09:56:58.688Z,53.47
2023-01-17T10:07:40.904Z,53.54
2023-01-17T10:18:29.856Z,53.48
2023-01-17T10:28:40.788Z,54.69
2023-01-17T10:38:48.279Z,53.75
2023-01-17T10:48:52.982Z,52.96
2023-01-17T10:59:31.364Z,53.10
2023-01-17T11:09:42.958Z,53.67
2023-01-17T11:19:49.173Z,54.18
2023-01-17T11:30:03.060Z,53.54
2023-01-17T11:40:18.452Z,54.35
2023-01-17T11:50:25.249Z,55.48
2023-01-17T12:00:47.374Z,56.20
2023-01-17T12:11:17.290Z,55.62
2023-01-17T12:21:36.087Z,53.35
2023-01-17T12:31:59.729Z,51.57
2023-01-17T12:42:24.368Z,52.76
2023-01-17T12:52:38.815Z,52.18
2023-01-17T13:02:54.292Z,51.45
2023-01-17T13:13:00.046Z,52.24
2023-01-17T13:23:16.971Z,51.21
2023-01-17T13:33:36.479Z,49.19
2023-01-17T13:43:42.466Z,49.30
2023-01-17T13:53:44.785Z,51.37
2023-01-17T14:03:50.215Z,50.65
2023-01-17T14:13:52.854Z,51.28
2023-01-17T14:24:15.438Z,51.50
2023-01-17T14:34:22.515Z,49.88
2023-01-17T14:44:25.007Z,52.04
2023-01-17T14:54:27.547Z,52.42
2023-01-17T15:04:32.132Z,52.16
2023-01-17T15:14:39.310Z,51.03
2023-01-17T15:24:44.869Z,51.94
2023-01-17T15:34:50.213Z,53.32
2023-01-17T15:44:56.766Z,54.58
2023-01-17T15:55:12.581Z,56.21
2023-01-17T16:05:31.237Z,57.74
2023-01-17T16:15:35.437Z,58.72
2023-01-17T16:25:38.552Z,61.79
2023-01-17T16:35:43.185Z,61.71
2023-01-17T16:45:47.814Z,64.24
2023-01-17T16:55:52.837Z,65.61
2023-01-17T17:06:00.470Z,67.27
2023-01-17T17:16:03.414Z,68.00
2023-01-17T17:26:06.211Z,69.17
2023-01-17T17:36:10.423Z,69.45
2023-01-17T17:46:13.305Z,70.57
2023-01-17T17:56:15.744Z,70.48
2023-01-17T18:06:18.895Z,71.19
2023-01-17T18:16:42.818Z,73.94
2023-01-17T18:26:48.177Z,71.91
2023-01-17T18:36:51.869Z,73.80
2023-01-17T18:46:55.064Z,74.26
2023-01-17T18:56:57.586Z,75.59
2023-01-17T19:06:59.977Z,74.42
2023-01-17T19:17:02.431Z,75.80
2023-01-17T19:27:07.339Z,75.40
2023-01-17T19:37:09.704Z,78.34
2023-01-17T19:47:12.341Z,76.60
2023-01-17T19:57:15.086Z,75.23
2023-01-17T20:07:17.551Z,75.97
2023-01-17T20:17:20.432Z,74.85
2023-01-17T20:27:26.709Z,77.73
2023-01-17T20:37:29.207Z,77.16
2023-01-17T20:47:31.605Z,77.02
2023-01-17T20:57:34.584Z,74.56
2023-01-17T21:07:37.598Z,74.69
2023-01-17T21:17:43.180Z,74.81
2023-01-17T21:27:45.859Z,75.39
2023-01-17T21:40:11.214Z,75.12
2023-01-17T21:50:25.009Z,74.85
2023-01-17T22:00:34.737Z,75.27
2023-01-17T22:10:44.766Z,75.75
2023-01-17T22:20:47.301Z,74.82
2023-01-17T22:30:49.756Z,75.07
2023-01-17T22:40:52.291Z,74.72
2023-01-17T22:50:59.955Z,74.91
2023-01-17T23:01:05.796Z,74.43
2023-01-17T23:11:41.107Z,73.37
2023-01-17T23:22:01.976Z,72.45
2023-01-17T23:32:04.672Z,73.32
2023-01-17T23:42:25.874Z,72.97
2023-01-17T23:52:28.235Z,73.67
